Main page
METAR-TAF:

METAR-TAF

Airports :

Banja Luka, Bosnia and Herzegovina

Banja Luka International Airport

latitude: 44-47N, longitude: 017-13E, elevation: 156 m

Current weather observation

The report was made 1 hour and 7 minutes ago, at 22:30 UTC
Wind 2 kt from the South
Temperature 18°C
Humidity 77%
Pressure 1019 hPa
Visibility 10 km or more
no clouds below 1500 m and no cumulonimbus

METAR: LQBK 162230Z 19002KT CAVOK 18/14 Q1019 NOSIG

Time: 01:37 (23:37 UTC)

Forecast

The report was made 6 hours and 37 minutes ago, at 17:00 UTC
Forecast valid from 16 at 18 UTC to 17 at 18 UTC
Wind 5 kt from the North/Northwest
Visibility 10 km or more
no clouds below 1500 m and no cumulonimbus
Temporary
from 16 at 18 UTC to 16 at 21 UTC
Wind 10 kt from the East/Northeast

TAF: LQBK 161700Z 1618/1718 34005KT CAVOK TX34/1714Z TN16/1704Z TEMPO 1618/1621 07010KT

Weather observations and forecasts of more than 4000 airports (METAR and TAF reports).

The available stations are represented by yellow and red dots on the map.

Hover mouse over dot to see the name of the station.

Then click to see weather observations and forecasts.

To change the map : click on the green buttons with a black cross to zoom in, on the green button with a dash to zoom out, or on the green arrows for adjacent maps.


METAR-TAF: